createdAt,value
2018-11-26T00:00:00.469Z,38.10
2018-11-26T00:01:00.348Z,39.00
2018-11-26T00:02:00.347Z,38.10
2018-11-26T00:03:00.346Z,38.80
2018-11-26T00:04:00.230Z,38.00
2018-11-26T00:05:00.228Z,38.50
2018-11-26T00:06:00.113Z,39.10
2018-11-26T00:07:00.104Z,39.30
2018-11-26T00:08:00.108Z,38.40
2018-11-26T00:08:59.988Z,38.60
2018-11-26T00:09:59.988Z,39.80
2018-11-26T00:10:59.866Z,38.50
2018-11-26T00:11:59.871Z,39.70
2018-11-26T00:12:59.864Z,40.90
2018-11-26T00:13:59.746Z,39.20
2018-11-26T00:14:59.743Z,38.90
2018-11-26T00:15:59.625Z,39.00
2018-11-26T00:16:59.623Z,38.20
2018-11-26T00:17:59.626Z,39.50
2018-11-26T00:18:59.504Z,37.90
2018-11-26T00:19:59.504Z,39.50
2018-11-26T00:20:59.388Z,39.10
2018-11-26T00:21:59.384Z,39.30
2018-11-26T00:22:59.386Z,39.10
2018-11-26T00:23:59.263Z,39.50
2018-11-26T00:24:59.266Z,38.70
2018-11-26T00:25:59.140Z,38.40
2018-11-26T00:26:59.143Z,39.10
2018-11-26T00:27:59.108Z,39.00
2018-11-26T00:28:59.024Z,38.00
2018-11-26T00:29:59.025Z,38.20
2018-11-26T00:30:58.904Z,38.70
2018-11-26T00:31:58.901Z,39.70
2018-11-26T00:32:58.781Z,38.70
2018-11-26T00:33:58.781Z,38.50
2018-11-26T00:34:58.790Z,39.70
2018-11-26T00:35:58.661Z,38.70
2018-11-26T00:36:58.662Z,38.70
2018-11-26T00:37:58.560Z,39.20
2018-11-26T00:38:58.541Z,38.70
2018-11-26T00:39:58.540Z,38.60
2018-11-26T00:40:58.419Z,37.90
2018-11-26T00:41:58.418Z,39.50
2018-11-26T00:42:58.301Z,37.50
2018-11-26T00:43:58.298Z,37.60
2018-11-26T00:44:58.297Z,37.80
2018-11-26T00:45:58.178Z,36.80
2018-11-26T00:46:58.178Z,37.80
2018-11-26T00:47:58.062Z,37.50
2018-11-26T00:48:58.058Z,37.60
2018-11-26T00:49:58.057Z,37.40
2018-11-26T00:50:57.937Z,37.50
2018-11-26T00:51:57.936Z,39.00
2018-11-26T00:52:57.816Z,37.70
2018-11-26T00:53:57.817Z,37.80
2018-11-26T00:54:57.817Z,38.80
2018-11-26T00:55:57.696Z,38.90
2018-11-26T00:56:57.702Z,38.90
2018-11-26T00:57:57.575Z,40.80
2018-11-26T00:58:57.575Z,40.20
2018-11-26T00:59:57.537Z,39.20
2018-11-26T01:00:57.458Z,40.00
2018-11-26T01:01:57.456Z,39.60
2018-11-26T01:02:57.334Z,38.70
2018-11-26T01:03:57.338Z,38.30
2018-11-26T01:04:57.215Z,39.30
2018-11-26T01:05:57.214Z,40.40
2018-11-26T01:06:57.217Z,39.70
2018-11-26T01:07:57.096Z,39.70
2018-11-26T01:08:57.095Z,40.10
2018-11-26T01:09:56.971Z,40.90
2018-11-26T01:10:56.973Z,40.40
2018-11-26T01:11:56.973Z,40.40
2018-11-26T01:12:56.854Z,40.90
2018-11-26T01:13:56.852Z,40.10
2018-11-26T01:14:56.744Z,39.50
2018-11-26T01:15:56.733Z,40.50
2018-11-26T01:16:56.734Z,40.10
2018-11-26T01:17:56.614Z,41.00
2018-11-26T01:18:56.611Z,41.50
2018-11-26T01:19:56.493Z,39.80
2018-11-26T01:20:56.492Z,40.80
2018-11-26T01:21:56.490Z,40.20
2018-11-26T01:22:56.380Z,40.40
2018-11-26T01:23:56.370Z,39.80
2018-11-26T01:24:56.251Z,39.30
2018-11-26T01:25:56.250Z,39.60
2018-11-26T01:26:56.249Z,39.80
2018-11-26T01:27:56.130Z,38.80
2018-11-26T01:28:56.131Z,39.10
2018-11-26T01:29:56.011Z,39.30
2018-11-26T01:30:56.007Z,38.60
2018-11-26T01:31:56.008Z,39.20
2018-11-26T01:32:55.895Z,38.80
2018-11-26T01:33:56.009Z,40.70
2018-11-26T01:34:55.766Z,40.80
2018-11-26T01:35:55.766Z,39.90
2018-11-26T01:36:55.730Z,39.00
2018-11-26T01:37:55.647Z,40.20
2018-11-26T01:38:55.648Z,38.30
2018-11-26T01:39:55.528Z,40.20
2018-11-26T01:40:55.529Z,40.50
2018-11-26T01:41:55.411Z,39.40
2018-11-26T01:42:55.410Z,40.00
2018-11-26T01:43:55.413Z,38.30
2018-11-26T01:44:55.284Z,39.40
2018-11-26T01:45:55.286Z,41.00
2018-11-26T01:46:55.165Z,39.50
2018-11-26T01:47:55.164Z,38.30
2018-11-26T01:48:55.164Z,39.70
2018-11-26T01:49:55.044Z,38.90
2018-11-26T01:50:55.044Z,38.00
2018-11-26T01:51:54.927Z,38.40
2018-11-26T01:52:54.923Z,37.80
2018-11-26T01:53:54.923Z,39.60
2018-11-26T01:54:54.803Z,38.50
2018-11-26T01:55:54.807Z,37.80
2018-11-26T01:56:54.681Z,37.90
2018-11-26T01:57:54.685Z,38.00
2018-11-26T01:58:54.681Z,39.40
2018-11-26T01:59:54.562Z,37.60
2018-11-26T02:00:54.564Z,37.70
2018-11-26T02:01:54.446Z,37.40
2018-11-26T02:02:54.440Z,38.10
2018-11-26T02:03:54.440Z,38.10
2018-11-26T02:04:54.321Z,36.60
2018-11-26T02:05:54.321Z,36.50
2018-11-26T02:06:54.200Z,37.70
2018-11-26T02:07:54.206Z,36.30
2018-11-26T02:08:54.199Z,38.10
2018-11-26T02:09:54.080Z,37.60
2018-11-26T02:10:54.079Z,36.90
2018-11-26T02:11:53.963Z,37.30
2018-11-26T02:12:53.959Z,36.80
2018-11-26T02:13:53.843Z,37.00
2018-11-26T02:14:53.842Z,36.30
2018-11-26T02:15:53.843Z,36.20
2018-11-26T02:16:53.720Z,37.20
2018-11-26T02:17:53.721Z,35.60
2018-11-26T02:18:53.684Z,36.40
2018-11-26T02:19:53.600Z,37.20
2018-11-26T02:20:53.599Z,35.90
2018-11-26T02:21:53.480Z,34.60
2018-11-26T02:22:53.477Z,33.30
2018-11-26T02:23:53.356Z,34.80
2018-11-26T02:24:53.356Z,34.30
2018-11-26T02:25:53.356Z,33.60
2018-11-26T02:26:53.238Z,34.80
2018-11-26T02:27:53.246Z,34.00
2018-11-26T02:28:53.115Z,34.90
2018-11-26T02:29:53.118Z,33.90
2018-11-26T02:30:53.115Z,33.20
2018-11-26T02:31:52.997Z,32.60
2018-11-26T02:32:52.995Z,31.90
2018-11-26T02:33:52.874Z,31.20
2018-11-26T02:34:52.874Z,32.80
2018-11-26T02:35:52.879Z,31.40
2018-11-26T02:36:52.753Z,32.20
2018-11-26T02:37:52.756Z,32.10
2018-11-26T02:38:52.632Z,31.30
2018-11-26T02:39:52.634Z,33.10
2018-11-26T02:40:52.599Z,32.20
2018-11-26T02:41:52.514Z,31.70
2018-11-26T02:42:52.525Z,32.20
2018-11-26T02:43:52.392Z,31.90
2018-11-26T02:44:52.401Z,31.20
2018-11-26T02:45:52.274Z,32.20
2018-11-26T02:46:52.274Z,31.40
2018-11-26T02:47:52.272Z,31.60
2018-11-26T02:48:52.201Z,32.10
2018-11-26T02:49:52.151Z,30.70
2018-11-26T02:50:52.033Z,31.70
2018-11-26T02:51:52.030Z,31.10
2018-11-26T02:52:52.030Z,30.70
2018-11-26T02:53:51.910Z,32.70
2018-11-26T02:54:52.396Z,32.40
2018-11-26T02:55:51.792Z,30.70
2018-11-26T02:56:51.790Z,30.70
2018-11-26T02:57:51.809Z,30.00
2018-11-26T02:58:51.669Z,30.40
2018-11-26T02:59:51.671Z,30.60
2018-11-26T03:00:51.549Z,31.10
2018-11-26T03:01:51.549Z,30.70
2018-11-26T03:02:51.549Z,32.70
2018-11-26T03:03:51.430Z,31.40
2018-11-26T03:04:51.434Z,31.10
2018-11-26T03:05:51.308Z,30.40
2018-11-26T03:06:51.309Z,30.00
2018-11-26T03:07:51.311Z,31.60
2018-11-26T03:08:51.188Z,30.60
2018-11-26T03:09:51.191Z,30.00
2018-11-26T03:10:51.077Z,31.50
2018-11-26T03:11:51.073Z,30.60
2018-11-26T03:12:51.062Z,31.40
2018-11-26T03:13:50.947Z,30.10
2018-11-26T03:14:50.947Z,30.20
2018-11-26T03:15:50.837Z,29.90
2018-11-26T03:16:50.826Z,31.10
2018-11-26T03:17:50.717Z,30.90
2018-11-26T03:18:50.710Z,31.40
2018-11-26T03:19:50.704Z,30.50
2018-11-26T03:20:50.585Z,30.30
2018-11-26T03:21:50.584Z,29.90
2018-11-26T03:22:50.463Z,30.90
2018-11-26T03:23:50.463Z,30.30
2018-11-26T03:24:50.466Z,30.40
2018-11-26T03:25:50.348Z,29.60
2018-11-26T03:26:50.346Z,29.10
2018-11-26T03:27:50.227Z,29.40
2018-11-26T03:28:50.222Z,29.50
2018-11-26T03:29:50.223Z,29.70
2018-11-26T03:30:50.101Z,31.00
2018-11-26T03:31:50.105Z,30.50
2018-11-26T03:32:49.985Z,30.40
2018-11-26T03:33:49.985Z,29.50
2018-11-26T03:34:49.980Z,30.30
2018-11-26T03:35:49.861Z,29.10
2018-11-26T03:36:49.868Z,30.50
2018-11-26T03:37:49.745Z,30.60
2018-11-26T03:38:49.744Z,29.30
2018-11-26T03:39:49.740Z,29.10
2018-11-26T03:40:49.622Z,30.20
2018-11-26T03:41:49.623Z,29.50
2018-11-26T03:42:49.506Z,29.20
2018-11-26T03:43:49.499Z,29.40
2018-11-26T03:44:49.502Z,29.70
2018-11-26T03:45:49.389Z,29.00
2018-11-26T03:46:49.379Z,29.60
2018-11-26T03:47:49.266Z,28.60
2018-11-26T03:48:49.263Z,30.40
2018-11-26T03:49:49.142Z,28.00
2018-11-26T03:50:49.138Z,30.30
2018-11-26T03:51:49.137Z,29.80
2018-11-26T03:52:49.015Z,28.00
2018-11-26T03:53:49.018Z,28.50
2018-11-26T03:54:48.903Z,29.40
2018-11-26T03:55:48.903Z,28.80
2018-11-26T03:56:48.899Z,29.20
2018-11-26T03:57:48.776Z,29.90
2018-11-26T03:58:48.776Z,28.50
2018-11-26T03:59:48.662Z,29.40
2018-11-26T04:00:48.657Z,29.80
2018-11-26T04:01:48.656Z,29.00
2018-11-26T04:02:48.534Z,28.50
2018-11-26T04:03:48.539Z,29.70
2018-11-26T04:04:48.419Z,30.20
2018-11-26T04:05:48.420Z,29.90
2018-11-26T04:06:48.414Z,28.80
2018-11-26T04:07:48.294Z,29.30
2018-11-26T04:08:48.300Z,29.40
2018-11-26T04:09:48.174Z,28.60
2018-11-26T04:10:48.184Z,27.10
2018-11-26T04:11:48.174Z,29.50
2018-11-26T04:12:48.054Z,29.30
2018-11-26T04:13:48.057Z,28.80
2018-11-26T04:14:47.933Z,29.10
2018-11-26T04:15:47.942Z,27.20
2018-11-26T04:16:47.934Z,29.20
2018-11-26T04:17:47.811Z,28.60
2018-11-26T04:18:47.815Z,29.10
2018-11-26T04:19:47.691Z,30.00
2018-11-26T04:20:47.692Z,29.30
2018-11-26T04:21:47.686Z,28.70
2018-11-26T04:22:47.570Z,29.70
2018-11-26T04:23:47.572Z,29.80
2018-11-26T04:24:47.453Z,28.60
2018-11-26T04:25:47.450Z,29.50
2018-11-26T04:26:47.329Z,30.20
2018-11-26T04:27:47.332Z,30.30
2018-11-26T04:28:47.329Z,29.00
2018-11-26T04:29:47.210Z,29.60
2018-11-26T04:30:47.208Z,31.30
2018-11-26T04:31:47.093Z,30.30
2018-11-26T04:32:47.089Z,30.30
2018-11-26T04:33:47.089Z,30.70
2018-11-26T04:34:46.971Z,30.90
2018-11-26T04:35:46.970Z,30.60
2018-11-26T04:36:46.851Z,30.90
2018-11-26T04:37:46.849Z,31.20
2018-11-26T04:38:46.851Z,31.20
2018-11-26T04:39:46.846Z,31.20
2018-11-26T04:40:46.811Z,32.00
2018-11-26T04:41:46.705Z,31.10
2018-11-26T04:42:46.724Z,32.80
2018-11-26T04:43:46.729Z,32.00
2018-11-26T04:44:46.491Z,32.00
2018-11-26T04:45:46.487Z,31.80
2018-11-26T04:46:46.368Z,31.50
2018-11-26T04:47:46.365Z,32.10
2018-11-26T04:48:46.369Z,32.20
2018-11-26T04:49:46.251Z,31.50
2018-11-26T04:50:46.244Z,33.40
2018-11-26T04:51:46.125Z,31.60
2018-11-26T04:52:46.124Z,32.20
2018-11-26T04:53:46.120Z,32.10
2018-11-26T04:54:46.006Z,32.50
2018-11-26T04:55:46.004Z,31.80
2018-11-26T04:56:45.882Z,33.50
2018-11-26T04:57:45.882Z,32.20
2018-11-26T04:58:45.847Z,32.20
2018-11-26T04:59:45.765Z,32.00
2018-11-26T05:00:45.768Z,31.80
2018-11-26T05:01:45.646Z,32.40
2018-11-26T05:02:45.642Z,32.20
2018-11-26T05:03:45.520Z,31.80
2018-11-26T05:04:45.522Z,32.50
2018-11-26T05:05:45.528Z,32.40
2018-11-26T05:06:45.405Z,30.30
2018-11-26T05:07:45.399Z,32.70
2018-11-26T05:08:45.282Z,31.30
2018-11-26T05:09:45.285Z,31.30
2018-11-26T05:10:45.288Z,32.20
2018-11-26T05:11:45.160Z,33.10
2018-11-26T05:12:45.161Z,31.70
2018-11-26T05:13:45.048Z,31.10
2018-11-26T05:14:45.047Z,31.30
2018-11-26T05:15:45.039Z,31.80
2018-11-26T05:16:44.919Z,31.80
2018-11-26T05:17:44.921Z,33.10
2018-11-26T05:18:44.802Z,32.40
2018-11-26T05:19:44.797Z,31.10
2018-11-26T05:20:44.798Z,32.40
2018-11-26T05:21:44.677Z,32.10
2018-11-26T05:22:44.678Z,31.30
2018-11-26T05:23:44.560Z,32.00
2018-11-26T05:24:44.559Z,31.20
2018-11-26T05:25:44.560Z,31.40
2018-11-26T05:26:44.439Z,31.20
2018-11-26T05:27:44.436Z,32.00
2018-11-26T05:28:44.315Z,32.80
2018-11-26T05:29:44.318Z,32.90
2018-11-26T05:30:44.310Z,31.90
2018-11-26T05:31:44.197Z,30.90
2018-11-26T05:32:44.195Z,31.80
2018-11-26T05:33:44.075Z,30.20
2018-11-26T05:34:44.075Z,30.30
2018-11-26T05:35:43.953Z,31.30
2018-11-26T05:36:43.958Z,30.30
2018-11-26T05:37:43.954Z,31.10
2018-11-26T05:38:43.834Z,31.00
2018-11-26T05:39:43.837Z,30.60
2018-11-26T05:40:43.716Z,31.00
2018-11-26T05:41:43.718Z,31.00
2018-11-26T05:42:43.714Z,30.00
2018-11-26T05:43:43.593Z,30.20
2018-11-26T05:44:43.593Z,28.70
2018-11-26T05:45:43.473Z,30.20
2018-11-26T05:46:43.471Z,29.30
2018-11-26T05:47:43.476Z,28.70
2018-11-26T05:48:43.349Z,28.00
2018-11-26T05:49:43.353Z,28.10
2018-11-26T05:50:43.231Z,28.30
2018-11-26T05:51:43.231Z,28.80
2018-11-26T05:52:43.234Z,28.90
2018-11-26T05:53:43.109Z,28.70
2018-11-26T05:54:43.110Z,29.50
2018-11-26T05:55:42.992Z,29.50
2018-11-26T05:56:42.994Z,28.60
2018-11-26T05:57:42.996Z,29.60
2018-11-26T05:58:42.879Z,29.40
2018-11-26T05:59:42.868Z,29.00
2018-11-26T06:00:42.768Z,29.20
2018-11-26T06:01:42.752Z,28.40
2018-11-26T06:02:42.752Z,29.70
2018-11-26T06:03:42.630Z,29.20
2018-11-26T06:04:42.632Z,28.80
2018-11-26T06:05:42.513Z,29.80
2018-11-26T06:06:42.512Z,28.80
2018-11-26T06:07:42.470Z,28.10
2018-11-26T06:08:42.388Z,28.80
2018-11-26T06:09:42.387Z,29.90
2018-11-26T06:10:42.269Z,30.00
2018-11-26T06:11:42.268Z,28.80
2018-11-26T06:12:42.146Z,29.20
2018-11-26T06:13:42.146Z,29.70
2018-11-26T06:14:42.147Z,28.70
2018-11-26T06:15:42.027Z,28.80
2018-11-26T06:16:42.028Z,28.50
2018-11-26T06:17:41.913Z,28.90
2018-11-26T06:18:41.904Z,28.30
2018-11-26T06:19:41.904Z,28.50
2018-11-26T06:20:41.784Z,29.20
2018-11-26T06:21:41.814Z,28.50
2018-11-26T06:22:41.664Z,28.80
2018-11-26T06:23:41.669Z,29.00
2018-11-26T06:24:41.667Z,28.00
2018-11-26T06:25:41.549Z,28.10
2018-11-26T06:26:41.543Z,29.40
2018-11-26T06:27:41.425Z,28.20
2018-11-26T06:28:41.422Z,28.10
2018-11-26T06:29:41.422Z,29.10
2018-11-26T06:30:41.302Z,29.10
2018-11-26T06:31:41.305Z,29.20
2018-11-26T06:32:41.184Z,29.80
2018-11-26T06:33:41.181Z,27.30
2018-11-26T06:34:42.530Z,28.50
2018-11-26T06:35:41.066Z,29.70
2018-11-26T06:36:41.066Z,28.00
2018-11-26T06:37:40.944Z,28.00
2018-11-26T06:38:42.623Z,27.20
2018-11-26T06:39:40.936Z,28.60
2018-11-26T06:40:40.822Z,27.20
2018-11-26T06:41:40.825Z,28.70
2018-11-26T06:42:40.714Z,28.90
2018-11-26T06:43:40.699Z,27.20
2018-11-26T06:44:40.662Z,28.00
2018-11-26T06:45:40.584Z,27.50
2018-11-26T06:46:40.580Z,29.10
2018-11-26T06:47:40.458Z,28.60
2018-11-26T06:48:40.458Z,27.50
2018-11-26T06:49:40.353Z,27.80
2018-11-26T06:50:40.341Z,27.90
2018-11-26T06:51:40.337Z,27.70
2018-11-26T06:52:40.219Z,28.60
2018-11-26T06:53:40.219Z,27.70
2018-11-26T06:54:40.098Z,27.90
2018-11-26T06:55:40.095Z,27.70
2018-11-26T06:56:40.105Z,28.90
2018-11-26T06:57:39.976Z,27.70
2018-11-26T06:58:39.990Z,28.00
2018-11-26T06:59:39.856Z,28.00
2018-11-26T07:00:39.855Z,27.80
2018-11-26T07:01:39.858Z,28.30
2018-11-26T07:02:39.736Z,27.80
2018-11-26T07:03:39.739Z,27.60
2018-11-26T07:04:39.615Z,26.80
2018-11-26T07:05:39.613Z,26.70
2018-11-26T07:06:39.622Z,27.50
2018-11-26T07:07:39.497Z,28.20
2018-11-26T07:08:39.494Z,26.80
2018-11-26T07:09:39.374Z,27.20
2018-11-26T07:10:39.372Z,27.20
2018-11-26T07:11:39.372Z,27.90
2018-11-26T07:12:39.251Z,27.90
2018-11-26T07:13:39.251Z,27.70
2018-11-26T07:14:39.135Z,26.90
2018-11-26T07:15:39.135Z,27.10
2018-11-26T07:16:39.095Z,27.60
2018-11-26T07:17:39.016Z,27.80
2018-11-26T07:18:39.013Z,28.00
2018-11-26T07:19:38.890Z,27.70
2018-11-26T07:20:38.891Z,27.00
2018-11-26T07:21:38.853Z,26.40
2018-11-26T07:22:38.769Z,26.40
2018-11-26T07:23:38.768Z,27.20
2018-11-26T07:24:38.648Z,28.00
2018-11-26T07:25:38.651Z,27.30
2018-11-26T07:26:38.529Z,27.80
2018-11-26T07:27:38.527Z,27.80
2018-11-26T07:28:38.528Z,26.20
2018-11-26T07:29:38.408Z,27.80
2018-11-26T07:30:38.412Z,27.60
2018-11-26T07:31:38.288Z,28.80
2018-11-26T07:32:38.287Z,28.40
2018-11-26T07:33:38.288Z,27.50
2018-11-26T07:34:38.168Z,26.60
2018-11-26T07:35:38.166Z,28.80
2018-11-26T07:36:38.047Z,28.00
2018-11-26T07:37:38.046Z,28.40
2018-11-26T07:38:38.049Z,29.10
2018-11-26T07:39:37.926Z,27.40
2018-11-26T07:40:37.928Z,29.10
2018-11-26T07:41:37.805Z,28.90
2018-11-26T07:42:37.811Z,29.40
2018-11-26T07:43:37.804Z,29.20
2018-11-26T07:44:37.686Z,29.60
2018-11-26T07:45:37.685Z,30.10
2018-11-26T07:46:37.569Z,29.40
2018-11-26T07:47:37.565Z,29.40
2018-11-26T07:48:37.574Z,29.90
2018-11-26T07:49:37.443Z,29.30
2018-11-26T07:50:37.448Z,28.60
2018-11-26T07:51:37.326Z,30.80
2018-11-26T07:52:37.323Z,30.70
2018-11-26T07:53:37.286Z,29.90
2018-11-26T07:54:37.205Z,29.30
2018-11-26T07:55:37.202Z,30.50
2018-11-26T07:56:37.081Z,31.20
2018-11-26T07:57:37.082Z,30.80
2018-11-26T07:58:36.961Z,31.50
2018-11-26T07:59:36.962Z,31.70
2018-11-26T08:00:36.963Z,30.90
2018-11-26T08:01:36.842Z,30.10
2018-11-26T08:02:36.843Z,31.50
2018-11-26T08:03:36.725Z,31.10
2018-11-26T08:04:36.720Z,30.40
2018-11-26T08:05:36.723Z,31.00
2018-11-26T08:06:36.604Z,30.90
2018-11-26T08:07:36.604Z,30.70
2018-11-26T08:08:36.477Z,30.40
2018-11-26T08:09:36.480Z,32.00
2018-11-26T08:10:36.478Z,30.40
2018-11-26T08:11:36.360Z,30.10
2018-11-26T08:12:36.281Z,32.00
2018-11-26T08:13:36.227Z,30.90
2018-11-26T08:14:36.178Z,32.30
2018-11-26T08:15:36.134Z,31.10
2018-11-26T08:16:36.082Z,31.30
2018-11-26T08:17:36.034Z,29.60
2018-11-26T08:18:35.985Z,32.20
2018-11-26T08:19:35.936Z,31.40
2018-11-26T08:20:35.888Z,31.90
2018-11-26T08:21:35.837Z,31.90
2018-11-26T08:22:35.790Z,31.40
2018-11-26T08:23:35.742Z,32.60
2018-11-26T08:24:35.693Z,31.30
2018-11-26T08:25:35.643Z,31.70
2018-11-26T08:26:35.596Z,30.90
2018-11-26T08:27:35.547Z,30.20
2018-11-26T08:28:35.545Z,31.50
2018-11-26T08:29:35.539Z,32.00
2018-11-26T08:30:35.424Z,31.00
2018-11-26T08:31:35.420Z,31.50
2018-11-26T08:32:35.419Z,32.80
2018-11-26T08:33:35.306Z,32.00
2018-11-26T08:34:35.301Z,32.30
2018-11-26T08:35:35.179Z,31.80
2018-11-26T08:36:35.181Z,31.40
2018-11-26T08:37:35.143Z,32.50
2018-11-26T08:38:35.059Z,32.40
2018-11-26T08:39:35.062Z,33.10
2018-11-26T08:40:34.943Z,32.10
2018-11-26T08:41:34.937Z,32.30
2018-11-26T08:42:34.824Z,33.10
2018-11-26T08:43:34.826Z,32.40
2018-11-26T08:44:34.817Z,31.20
2018-11-26T08:45:34.700Z,31.10
2018-11-26T08:46:34.698Z,31.70
2018-11-26T08:47:34.577Z,30.80
2018-11-26T08:48:34.575Z,31.90
2018-11-26T08:49:34.580Z,32.30
2018-11-26T08:50:34.454Z,33.10
2018-11-26T08:51:34.457Z,32.30
2018-11-26T08:52:34.338Z,32.90
2018-11-26T08:53:34.335Z,32.10
2018-11-26T08:54:34.334Z,31.80
2018-11-26T08:55:34.214Z,32.30
2018-11-26T08:56:34.214Z,32.00
2018-11-26T08:57:34.093Z,32.20
2018-11-26T08:58:34.093Z,32.30
2018-11-26T08:59:34.094Z,32.90
2018-11-26T09:00:33.974Z,32.20
2018-11-26T09:01:33.979Z,32.50
2018-11-26T09:02:33.855Z,32.90
2018-11-26T09:03:33.852Z,32.50
2018-11-26T09:04:33.854Z,31.50
2018-11-26T09:05:33.735Z,32.00
2018-11-26T09:06:33.732Z,32.60
2018-11-26T09:07:33.611Z,32.50
2018-11-26T09:08:33.610Z,30.50
2018-11-26T09:09:33.641Z,31.40
2018-11-26T09:10:33.489Z,32.20
2018-11-26T09:11:33.491Z,32.20
2018-11-26T09:12:33.373Z,32.80
2018-11-26T09:13:33.370Z,32.10
2018-11-26T09:14:33.369Z,31.70
2018-11-26T09:15:33.255Z,30.70
2018-11-26T09:16:33.252Z,30.60
2018-11-26T09:17:33.130Z,33.50
2018-11-26T09:18:33.130Z,31.00
2018-11-26T09:19:33.128Z,30.60
2018-11-26T09:20:33.008Z,32.00
2018-11-26T09:21:33.007Z,31.50
2018-11-26T09:22:32.888Z,29.80
2018-11-26T09:23:32.888Z,32.40
2018-11-26T09:24:32.887Z,31.30
2018-11-26T09:25:32.767Z,30.10
2018-11-26T09:26:32.772Z,30.80
2018-11-26T09:27:32.646Z,29.90
2018-11-26T09:28:32.646Z,30.70
2018-11-26T09:29:32.646Z,30.70
2018-11-26T09:30:32.530Z,30.20
2018-11-26T09:31:32.552Z,30.90
2018-11-26T09:32:32.408Z,29.60
2018-11-26T09:33:32.407Z,30.40
2018-11-26T09:34:32.411Z,29.30
2018-11-26T09:35:32.290Z,30.50
2018-11-26T09:36:32.341Z,31.20
2018-11-26T09:37:32.164Z,30.40
2018-11-26T09:38:32.169Z,30.50
2018-11-26T09:39:32.166Z,31.20
2018-11-26T09:40:32.044Z,30.50
2018-11-26T09:41:32.044Z,30.30
2018-11-26T09:42:31.926Z,30.50
2018-11-26T09:43:31.924Z,30.30
2018-11-26T09:44:31.927Z,30.50
2018-11-26T09:45:31.806Z,31.20
2018-11-26T09:46:31.802Z,30.70
2018-11-26T09:47:31.884Z,31.00
2018-11-26T09:48:31.765Z,31.30
2018-11-26T09:49:31.682Z,30.10
2018-11-26T09:50:31.562Z,31.60
2018-11-26T09:51:31.562Z,30.90
2018-11-26T09:52:31.441Z,30.80
2018-11-26T09:53:31.440Z,30.80
2018-11-26T09:54:31.441Z,30.70
2018-11-26T09:55:31.320Z,29.80
2018-11-26T09:56:31.323Z,32.00
2018-11-26T09:57:31.215Z,31.30
2018-11-26T09:58:31.199Z,30.50
2018-11-26T09:59:31.204Z,32.10
2018-11-26T10:00:31.079Z,33.40
2018-11-26T10:01:31.080Z,33.80
2018-11-26T10:02:30.957Z,33.20
2018-11-26T10:03:30.981Z,33.50
2018-11-26T10:04:30.959Z,32.10
2018-11-26T10:05:30.839Z,32.90
2018-11-26T10:06:30.839Z,32.80
2018-11-26T10:07:30.719Z,33.70
2018-11-26T10:08:30.717Z,33.20
2018-11-26T10:09:30.717Z,32.60
2018-11-26T10:10:30.601Z,32.70
2018-11-26T10:11:30.597Z,33.80
2018-11-26T10:12:30.480Z,33.70
2018-11-26T10:13:30.478Z,32.80
2018-11-26T10:14:30.477Z,32.90
2018-11-26T10:15:30.367Z,33.70
2018-11-26T10:16:30.358Z,33.50
2018-11-26T10:17:30.235Z,32.60
2018-11-26T10:18:30.234Z,33.70
2018-11-26T10:19:30.235Z,32.10
2018-11-26T10:20:30.114Z,31.90
2018-11-26T10:21:30.114Z,32.00
2018-11-26T10:22:29.993Z,32.70
2018-11-26T10:23:29.994Z,32.20
2018-11-26T10:24:29.997Z,32.60
2018-11-26T10:25:29.873Z,31.70
2018-11-26T10:26:29.874Z,33.10
2018-11-26T10:27:29.755Z,32.90
2018-11-26T10:28:29.758Z,31.70
2018-11-26T10:29:29.754Z,32.50
2018-11-26T10:30:29.633Z,31.20
2018-11-26T10:31:29.633Z,32.10
2018-11-26T10:32:29.521Z,31.70
2018-11-26T10:33:29.522Z,31.80
2018-11-26T10:34:29.511Z,32.60
2018-11-26T10:35:29.392Z,31.50
2018-11-26T10:36:29.394Z,33.10
2018-11-26T10:37:29.284Z,32.80
2018-11-26T10:38:29.276Z,32.20
2018-11-26T10:39:29.270Z,32.40
2018-11-26T10:40:29.155Z,32.90
2018-11-26T10:41:29.151Z,31.80
2018-11-26T10:42:29.031Z,31.80
2018-11-26T10:43:29.044Z,32.00
2018-11-26T10:44:29.028Z,30.20
2018-11-26T10:45:28.916Z,32.10
2018-11-26T10:46:28.918Z,32.10
2018-11-26T10:47:28.790Z,32.20
2018-11-26T10:48:28.789Z,31.90
2018-11-26T10:49:28.790Z,31.50
2018-11-26T10:50:28.667Z,32.00
2018-11-26T10:51:28.668Z,31.00
2018-11-26T10:52:28.668Z,32.20
2018-11-26T10:53:28.548Z,32.50
2018-11-26T10:54:28.553Z,31.90
2018-11-26T10:55:28.431Z,32.30
2018-11-26T10:56:28.428Z,33.10
2018-11-26T10:57:28.306Z,32.30
2018-11-26T10:58:28.307Z,31.60
2018-11-26T10:59:28.313Z,30.80
2018-11-26T11:00:28.190Z,32.90
2018-11-26T11:01:28.188Z,31.70
2018-11-26T11:02:28.065Z,31.30
2018-11-26T11:03:28.064Z,31.30
2018-11-26T11:04:28.064Z,31.70
2018-11-26T11:05:27.944Z,32.20
2018-11-26T11:06:27.947Z,31.70
2018-11-26T11:07:27.950Z,32.50
2018-11-26T11:08:27.824Z,33.10
2018-11-26T11:09:27.824Z,32.40
2018-11-26T11:10:27.824Z,32.10
2018-11-26T11:11:27.711Z,32.60
2018-11-26T11:12:27.585Z,32.30
2018-11-26T11:13:27.582Z,33.40
2018-11-26T11:14:27.585Z,32.20
2018-11-26T11:15:27.462Z,32.50
2018-11-26T11:16:27.465Z,34.30
2018-11-26T11:17:27.341Z,32.20
2018-11-26T11:18:27.339Z,33.10
2018-11-26T11:19:27.340Z,33.30
2018-11-26T11:20:27.221Z,33.20
2018-11-26T11:21:27.219Z,32.50
2018-11-26T11:22:27.103Z,32.80
2018-11-26T11:23:27.100Z,32.50
2018-11-26T11:24:27.103Z,32.40
2018-11-26T11:25:26.986Z,32.90
2018-11-26T11:26:28.221Z,32.90
2018-11-26T11:27:26.858Z,31.90
2018-11-26T11:28:26.859Z,33.40
2018-11-26T11:29:26.858Z,33.00
2018-11-26T11:30:26.743Z,32.00
2018-11-26T11:31:26.737Z,32.50
2018-11-26T11:32:26.617Z,31.80
2018-11-26T11:34:26.618Z,32.20
2018-11-26T11:35:26.498Z,33.10
2018-11-26T11:36:26.502Z,33.70
2018-11-26T11:37:26.376Z,32.40
2018-11-26T11:38:26.375Z,33.10
2018-11-26T11:39:26.375Z,33.40
2018-11-26T11:40:26.296Z,32.70
2018-11-26T11:41:26.258Z,34.60
2018-11-26T11:42:26.137Z,33.70
2018-11-26T11:43:26.135Z,32.90
2018-11-26T11:44:26.136Z,34.40
2018-11-26T11:45:26.043Z,33.80
2018-11-26T11:46:26.013Z,34.60
2018-11-26T11:47:25.894Z,33.50
2018-11-26T11:48:25.896Z,34.60
2018-11-26T11:49:25.891Z,33.80
2018-11-26T11:50:25.774Z,34.10
2018-11-26T11:51:25.773Z,34.50
2018-11-26T11:52:25.736Z,34.90
2018-11-26T11:53:25.652Z,34.20
2018-11-26T11:54:25.654Z,35.00
2018-11-26T11:55:25.537Z,35.70
2018-11-26T11:56:25.532Z,34.40
2018-11-26T11:57:25.494Z,34.00
2018-11-26T11:58:25.413Z,34.00
2018-11-26T11:59:25.411Z,33.90
2018-11-26T12:00:25.290Z,33.80
2018-11-26T12:01:25.292Z,34.10
2018-11-26T12:02:25.253Z,33.80
2018-11-26T12:03:25.171Z,33.90
2018-11-26T12:04:25.177Z,33.60
2018-11-26T12:05:25.050Z,34.10
2018-11-26T12:06:25.050Z,34.20
2018-11-26T12:07:25.060Z,34.40
2018-11-26T12:08:24.930Z,35.00
2018-11-26T12:09:24.932Z,34.50
2018-11-26T12:10:24.809Z,34.30
2018-11-26T12:11:24.809Z,33.70
2018-11-26T12:12:24.810Z,34.60
2018-11-26T12:13:24.691Z,34.40
2018-11-26T12:14:24.983Z,33.90
2018-11-26T12:15:24.567Z,33.50
2018-11-26T12:16:24.567Z,34.60
2018-11-26T12:17:24.567Z,35.90
2018-11-26T12:18:24.447Z,34.60
2018-11-26T12:19:24.446Z,33.70
2018-11-26T12:20:24.326Z,35.00
2018-11-26T12:21:24.326Z,33.00
2018-11-26T12:22:24.323Z,32.80
2018-11-26T12:23:24.204Z,34.70
2018-11-26T12:24:24.205Z,34.70
2018-11-26T12:25:24.084Z,35.00
2018-11-26T12:26:24.086Z,33.70
2018-11-26T12:27:24.084Z,35.10
2018-11-26T12:28:23.964Z,33.50
2018-11-26T12:29:23.962Z,35.40
2018-11-26T12:30:23.846Z,33.40
2018-11-26T12:31:23.848Z,34.60
2018-11-26T12:32:23.846Z,34.00
2018-11-26T12:33:23.722Z,32.90
2018-11-26T12:34:23.724Z,33.10
2018-11-26T12:35:23.607Z,34.10
2018-11-26T12:36:23.602Z,33.70
2018-11-26T12:37:23.603Z,33.00
2018-11-26T12:38:23.484Z,33.00
2018-11-26T12:39:23.482Z,33.60
2018-11-26T12:40:23.362Z,33.30
2018-11-26T12:41:23.360Z,32.80
2018-11-26T12:42:23.361Z,32.70
2018-11-26T12:43:23.244Z,33.00
2018-11-26T12:44:23.242Z,33.90
2018-11-26T12:45:23.122Z,33.30
2018-11-26T12:46:23.124Z,32.70
2018-11-26T12:47:23.122Z,33.60
2018-11-26T12:48:22.998Z,34.40
2018-11-26T12:49:22.999Z,34.20
2018-11-26T12:50:22.965Z,34.20
2018-11-26T12:51:22.877Z,34.30
2018-11-26T12:52:22.879Z,34.20